createdAt,value
2023-10-05T00:01:55.097Z,13.45
2023-10-05T00:04:25.406Z,13.40
2023-10-05T00:06:55.071Z,13.41
2023-10-05T00:09:25.862Z,13.42
2023-10-05T00:11:56.123Z,13.45
2023-10-05T00:14:25.453Z,13.47
2023-10-05T00:16:56.443Z,13.51
2023-10-05T00:19:27.863Z,13.49
2023-10-05T00:21:58.174Z,13.49
2023-10-05T00:24:30.969Z,13.46
2023-10-05T00:26:59.619Z,13.41
2023-10-05T00:29:30.020Z,13.42
2023-10-05T00:32:00.645Z,13.47
2023-10-05T00:34:29.832Z,13.43
2023-10-05T00:37:00.176Z,13.43
2023-10-05T00:39:31.282Z,13.46
2023-10-05T00:42:09.934Z,13.45
2023-10-05T00:44:41.237Z,13.44
2023-10-05T00:47:09.078Z,13.50
2023-10-05T00:49:48.636Z,13.45
2023-10-05T00:52:17.666Z,13.47
2023-10-05T00:54:52.568Z,13.44
2023-10-05T00:57:24.056Z,13.49
2023-10-05T01:00:00.521Z,13.42
2023-10-05T01:02:32.259Z,13.45
2023-10-05T01:05:03.157Z,13.42
2023-10-05T01:07:45.088Z,13.43
2023-10-05T01:10:30.608Z,13.39
2023-10-05T01:12:59.527Z,13.45
2023-10-05T01:15:34.149Z,13.38
2023-10-05T01:18:03.736Z,13.36
2023-10-05T01:20:33.911Z,13.32
2023-10-05T01:23:06.116Z,13.33
2023-10-05T01:25:34.276Z,13.31
2023-10-05T01:28:02.851Z,13.37
2023-10-05T01:30:30.792Z,13.37
2023-10-05T01:32:58.862Z,13.32
2023-10-05T01:35:27.363Z,13.35
2023-10-05T01:37:55.414Z,13.29
2023-10-05T01:40:31.781Z,13.32
2023-10-05T01:43:00.964Z,13.29
2023-10-05T01:45:31.763Z,13.35
2023-10-05T01:48:03.045Z,13.30
2023-10-05T01:50:32.873Z,13.38
2023-10-05T01:53:16.786Z,13.36
2023-10-05T01:55:48.872Z,13.32
2023-10-05T01:58:28.335Z,13.32
2023-10-05T02:00:57.560Z,13.38
2023-10-05T02:03:26.031Z,13.38
2023-10-05T02:06:00.126Z,13.37
2023-10-05T02:08:32.659Z,13.35
2023-10-05T02:11:05.161Z,13.41
2023-10-05T02:13:33.562Z,13.38
2023-10-05T02:16:02.150Z,13.40
2023-10-05T02:18:32.292Z,13.50
2023-10-05T02:21:06.809Z,13.55
2023-10-05T02:23:40.992Z,13.54
2023-10-05T02:26:12.994Z,13.54
2023-10-05T02:28:42.943Z,13.53
2023-10-05T02:31:13.843Z,13.52
2023-10-05T02:33:44.319Z,13.55
2023-10-05T02:36:18.249Z,13.51
2023-10-05T02:38:54.614Z,13.52
2023-10-05T02:41:40.021Z,13.53
2023-10-05T02:44:18.691Z,13.52
2023-10-05T02:46:49.110Z,13.48
2023-10-05T02:49:18.122Z,13.52
2023-10-05T02:51:47.671Z,13.49
2023-10-05T02:54:16.195Z,13.56
2023-10-05T02:56:46.325Z,13.41
2023-10-05T02:59:16.287Z,13.42
2023-10-05T03:01:44.600Z,13.40
2023-10-05T03:04:18.400Z,13.42
2023-10-05T03:06:49.707Z,13.42
2023-10-05T03:09:19.354Z,13.44
2023-10-05T03:11:49.149Z,13.48
2023-10-05T03:14:18.499Z,13.57
2023-10-05T03:16:49.386Z,13.62
2023-10-05T03:19:22.520Z,13.67
2023-10-05T03:21:54.156Z,13.72
2023-10-05T03:24:26.097Z,13.78
2023-10-05T03:26:57.047Z,13.81
2023-10-05T03:29:26.510Z,13.95
2023-10-05T03:31:56.860Z,13.92
2023-10-05T03:34:27.600Z,13.90
2023-10-05T03:36:57.758Z,13.92
2023-10-05T03:39:29.470Z,13.92
2023-10-05T03:41:59.141Z,13.98
2023-10-05T03:44:26.976Z,14.03
2023-10-05T03:46:55.102Z,14.02
2023-10-05T03:49:24.004Z,14.09
2023-10-05T03:51:52.625Z,14.05
2023-10-05T03:54:25.697Z,14.05
2023-10-05T03:57:05.869Z,14.10
2023-10-05T03:59:40.513Z,14.05
2023-10-05T04:02:08.520Z,14.05
2023-10-05T04:04:38.591Z,13.98
2023-10-05T04:07:09.429Z,14.02
2023-10-05T04:09:37.465Z,14.02
2023-10-05T04:12:11.482Z,13.95
2023-10-05T04:14:40.974Z,13.89
2023-10-05T04:17:12.451Z,13.91
2023-10-05T04:19:42.784Z,13.95
2023-10-05T04:22:10.797Z,13.88
2023-10-05T04:24:39.475Z,13.90
2023-10-05T04:27:09.923Z,13.90
2023-10-05T04:29:40.480Z,13.91
2023-10-05T04:32:08.584Z,13.90
2023-10-05T04:34:37.049Z,13.90
2023-10-05T04:37:05.157Z,13.90
2023-10-05T04:39:34.105Z,13.90
2023-10-05T04:42:12.024Z,13.84
2023-10-05T04:44:42.636Z,13.86
2023-10-05T04:47:11.355Z,13.88
2023-10-05T04:49:39.486Z,13.81
2023-10-05T04:52:07.906Z,13.87
2023-10-05T04:54:39.836Z,13.83
2023-10-05T04:57:13.931Z,13.86
2023-10-05T05:00:00.994Z,13.85
2023-10-05T05:02:57.313Z,13.95
2023-10-05T05:05:36.448Z,13.95
2023-10-05T05:08:04.463Z,13.91
2023-10-05T05:10:32.958Z,13.87
2023-10-05T05:13:02.042Z,13.82
2023-10-05T05:15:36.710Z,13.81
2023-10-05T05:18:07.848Z,13.83
2023-10-05T05:20:36.270Z,13.82
2023-10-05T05:23:06.309Z,13.86
2023-10-05T05:25:34.313Z,13.82
2023-10-05T05:28:06.585Z,13.87
2023-10-05T05:30:37.709Z,13.86
2023-10-05T05:33:11.169Z,13.83
2023-10-05T05:35:40.567Z,13.86
2023-10-05T05:38:11.207Z,13.86
2023-10-05T05:40:40.404Z,13.87
2023-10-05T05:43:10.292Z,13.88
2023-10-05T05:45:40.497Z,13.86
2023-10-05T05:48:10.609Z,13.87
2023-10-05T05:50:40.658Z,13.85
2023-10-05T05:53:12.313Z,13.90
2023-10-05T05:55:45.575Z,13.92
2023-10-05T05:58:16.152Z,13.97
2023-10-05T06:00:47.329Z,13.94
2023-10-05T06:03:15.803Z,13.98
2023-10-05T06:05:43.988Z,14.07
2023-10-05T06:08:12.980Z,14.05
2023-10-05T06:10:44.334Z,14.06
2023-10-05T06:13:13.417Z,14.10
2023-10-05T06:15:41.738Z,14.14
2023-10-05T06:18:11.051Z,14.11
2023-10-05T06:20:39.647Z,14.16
2023-10-05T06:23:07.549Z,14.16
2023-10-05T06:25:35.566Z,14.17
2023-10-05T06:28:03.474Z,14.19
2023-10-05T06:30:34.887Z,14.19
2023-10-05T06:33:08.862Z,14.32
2023-10-05T06:35:38.613Z,14.34
2023-10-05T06:38:06.384Z,14.33
2023-10-05T06:40:34.635Z,14.36
2023-10-05T06:43:02.876Z,14.38
2023-10-05T06:45:30.838Z,14.42
2023-10-05T06:47:58.688Z,14.47
2023-10-05T06:50:26.692Z,14.48
2023-10-05T06:52:56.603Z,14.53
2023-10-05T06:55:24.678Z,14.54
2023-10-05T06:57:52.979Z,14.51
2023-10-05T07:00:22.560Z,14.53
2023-10-05T07:02:51.453Z,14.56
2023-10-05T07:05:19.939Z,14.56
2023-10-05T07:07:48.419Z,14.59
2023-10-05T07:10:18.175Z,14.70
2023-10-05T07:12:49.032Z,14.77
2023-10-05T07:15:19.879Z,14.90
2023-10-05T07:17:48.998Z,14.93
2023-10-05T07:20:18.036Z,14.90
2023-10-05T07:22:46.983Z,14.96
2023-10-05T07:25:16.041Z,15.00
2023-10-05T07:27:46.533Z,14.97
2023-10-05T07:30:16.070Z,15.02
2023-10-05T07:32:44.194Z,15.03
2023-10-05T07:35:13.691Z,15.01
2023-10-05T07:37:42.510Z,14.98
2023-10-05T07:43:04.344Z,14.98
2023-10-05T07:45:32.569Z,15.00
2023-10-05T07:48:01.204Z,14.98
2023-10-05T07:50:29.118Z,14.98
2023-10-05T07:52:58.953Z,14.95
2023-10-05T07:55:27.188Z,14.90
2023-10-05T07:57:55.076Z,14.89
2023-10-05T08:00:24.183Z,14.85
2023-10-05T08:02:52.626Z,14.85
2023-10-05T08:05:20.851Z,14.85
2023-10-05T08:07:48.769Z,14.82
2023-10-05T08:10:17.700Z,14.78
2023-10-05T08:12:46.813Z,14.73
2023-10-05T08:15:19.674Z,14.73
2023-10-05T08:17:51.244Z,14.75
2023-10-05T08:20:25.844Z,14.77
2023-10-05T08:22:57.508Z,14.77
2023-10-05T08:25:26.167Z,14.80
2023-10-05T08:27:56.987Z,14.85
2023-10-05T08:30:26.161Z,14.82
2023-10-05T08:32:59.731Z,14.81
2023-10-05T08:35:29.434Z,14.79
2023-10-05T08:38:00.267Z,14.80
2023-10-05T08:40:38.831Z,14.83
2023-10-05T08:43:13.186Z,14.85
2023-10-05T08:45:49.694Z,14.84
2023-10-05T08:48:29.560Z,14.85
2023-10-05T08:51:05.853Z,14.82
2023-10-05T08:53:34.544Z,14.85
2023-10-05T08:56:04.396Z,14.88
2023-10-05T08:58:35.826Z,14.89
2023-10-05T09:01:24.170Z,14.94
2023-10-05T09:04:02.649Z,14.99
2023-10-05T09:06:31.962Z,15.06
2023-10-05T09:09:14.744Z,15.14
2023-10-05T09:11:43.489Z,15.18
2023-10-05T09:14:19.050Z,15.19
2023-10-05T09:16:49.685Z,15.13
2023-10-05T09:19:28.674Z,15.07
2023-10-05T09:22:12.116Z,15.02
2023-10-05T09:24:44.522Z,15.05
2023-10-05T09:27:14.275Z,15.06
2023-10-05T09:29:43.230Z,15.03
2023-10-05T09:32:24.277Z,15.11
2023-10-05T09:34:57.365Z,15.15
2023-10-05T09:37:26.853Z,15.18
2023-10-05T09:40:00.887Z,15.26
2023-10-05T09:42:29.297Z,15.30
2023-10-05T09:44:59.140Z,15.35
2023-10-05T09:47:28.153Z,15.42
2023-10-05T09:50:00.651Z,15.55
2023-10-05T09:52:36.089Z,15.61
2023-10-05T09:55:06.193Z,15.69
2023-10-05T09:57:41.893Z,15.73
2023-10-05T10:00:15.115Z,15.76
2023-10-05T10:02:43.612Z,15.88
2023-10-05T10:05:31.564Z,15.92
2023-10-05T10:08:10.270Z,16.00
2023-10-05T10:10:45.664Z,16.01
2023-10-05T10:13:13.569Z,16.10
2023-10-05T10:15:46.361Z,16.23
2023-10-05T10:18:16.341Z,16.32
2023-10-05T10:20:50.003Z,16.31
2023-10-05T10:23:23.624Z,16.43
2023-10-05T10:25:52.656Z,16.44
2023-10-05T10:28:40.646Z,16.48
2023-10-05T10:31:17.730Z,16.47
2023-10-05T10:33:51.419Z,16.59
2023-10-05T10:36:53.872Z,16.69
2023-10-05T10:39:26.258Z,16.62
2023-10-05T10:42:02.677Z,16.63
2023-10-05T10:44:42.478Z,16.62
2023-10-05T10:47:12.745Z,16.58
2023-10-05T10:49:41.402Z,16.69
2023-10-05T10:52:17.119Z,16.77
2023-10-05T10:54:51.820Z,16.73
2023-10-05T10:57:23.765Z,16.71
2023-10-05T11:00:05.018Z,16.60
2023-10-05T11:02:39.884Z,16.46
2023-10-05T11:05:16.105Z,16.40
2023-10-05T11:07:45.823Z,16.34
2023-10-05T11:10:20.163Z,16.32
2023-10-05T11:12:55.078Z,16.31
2023-10-05T11:15:29.419Z,16.33
2023-10-05T11:18:01.730Z,16.38
2023-10-05T11:20:34.796Z,16.44
2023-10-05T11:23:06.160Z,16.59
2023-10-05T11:25:36.668Z,16.68
2023-10-05T11:28:10.027Z,16.72
2023-10-05T11:30:46.317Z,16.90
2023-10-05T11:33:43.467Z,16.98
2023-10-05T11:36:18.835Z,17.00
2023-10-05T11:38:50.419Z,16.81
2023-10-05T11:41:25.023Z,16.73
2023-10-05T11:43:56.821Z,16.89
2023-10-05T11:46:30.779Z,16.75
2023-10-05T11:49:05.875Z,16.81
2023-10-05T11:51:42.654Z,16.90
2023-10-05T11:54:12.644Z,16.81
2023-10-05T11:56:41.689Z,16.70
2023-10-05T11:59:11.911Z,16.60
2023-10-05T12:01:41.757Z,16.66
2023-10-05T12:04:11.399Z,16.67
2023-10-05T12:06:40.647Z,16.67
2023-10-05T12:09:09.981Z,16.68
2023-10-05T12:11:39.966Z,16.70
2023-10-05T12:14:08.031Z,16.72
2023-10-05T12:16:39.903Z,16.78
2023-10-05T12:19:16.008Z,16.87
2023-10-05T12:21:44.636Z,16.98
2023-10-05T12:24:13.313Z,17.13
2023-10-05T12:26:44.865Z,17.21
2023-10-05T12:29:14.700Z,17.27
2023-10-05T12:31:43.084Z,17.37
2023-10-05T12:34:27.917Z,17.39
2023-10-05T12:36:57.696Z,17.47
2023-10-05T12:39:28.662Z,17.44
2023-10-05T12:41:59.043Z,17.45
2023-10-05T12:44:26.963Z,17.42
2023-10-05T12:46:55.626Z,17.22
2023-10-05T12:49:23.721Z,17.11
2023-10-05T12:51:53.482Z,16.85
2023-10-05T12:54:29.312Z,16.74
2023-10-05T12:57:21.179Z,16.51
2023-10-05T12:59:51.026Z,16.47
2023-10-05T13:02:20.236Z,16.41
2023-10-05T13:04:48.625Z,16.43
2023-10-05T13:07:19.505Z,16.42
2023-10-05T13:09:50.096Z,16.44
2023-10-05T13:12:21.743Z,16.42
2023-10-05T13:14:49.794Z,16.43
2023-10-05T13:17:17.761Z,16.53
2023-10-05T13:19:45.810Z,16.56
2023-10-05T13:22:13.702Z,16.77
2023-10-05T13:24:42.354Z,16.99
2023-10-05T13:27:10.400Z,17.09
2023-10-05T13:29:44.294Z,17.15
2023-10-05T13:32:14.409Z,17.09
2023-10-05T13:34:47.125Z,17.06
2023-10-05T13:37:15.692Z,17.15
2023-10-05T13:39:46.042Z,17.24
2023-10-05T13:42:19.695Z,17.15
2023-10-05T13:44:49.722Z,17.03
2023-10-05T13:47:19.358Z,16.96
2023-10-05T13:49:52.897Z,16.88
2023-10-05T13:52:22.364Z,16.83
2023-10-05T13:54:50.783Z,16.78
2023-10-05T13:57:22.364Z,16.71
2023-10-05T13:59:51.830Z,16.73
2023-10-05T14:02:20.753Z,16.75
2023-10-05T14:04:48.580Z,16.74
2023-10-05T14:07:16.469Z,16.68
2023-10-05T14:09:45.327Z,16.70
2023-10-05T14:12:13.637Z,16.70
2023-10-05T14:14:41.600Z,16.68
2023-10-05T14:17:11.689Z,16.71
2023-10-05T14:19:40.091Z,16.70
2023-10-05T14:22:10.665Z,16.70
2023-10-05T14:24:38.824Z,16.74
2023-10-05T14:27:06.833Z,16.76
2023-10-05T14:29:37.407Z,16.75
2023-10-05T14:32:06.975Z,16.75
2023-10-05T14:34:36.751Z,16.76
2023-10-05T14:37:07.172Z,16.73
2023-10-05T14:39:37.749Z,16.74
2023-10-05T14:42:10.824Z,16.72
2023-10-05T14:44:39.517Z,16.66
2023-10-05T14:47:13.334Z,16.67
2023-10-05T14:49:42.773Z,16.59
2023-10-05T14:52:10.601Z,16.63
2023-10-05T14:54:39.052Z,16.65
2023-10-05T14:57:09.798Z,16.67
2023-10-05T14:59:38.401Z,16.64
2023-10-05T15:02:07.369Z,16.59
2023-10-05T15:04:36.504Z,16.54
2023-10-05T15:07:06.028Z,16.56
2023-10-05T15:09:35.646Z,16.48
2023-10-05T15:12:05.857Z,16.48
2023-10-05T15:14:34.155Z,16.48
2023-10-05T15:17:03.226Z,16.56
2023-10-05T15:19:31.771Z,16.63
2023-10-05T15:21:59.680Z,16.73
2023-10-05T15:24:32.203Z,16.80
2023-10-05T15:27:00.099Z,16.80
2023-10-05T15:29:27.903Z,16.74
2023-10-05T15:31:55.799Z,16.60
2023-10-05T15:34:24.133Z,16.53
2023-10-05T15:36:57.544Z,16.50
2023-10-05T15:39:25.335Z,16.49
2023-10-05T15:41:54.963Z,16.47
2023-10-05T15:44:22.940Z,16.40
2023-10-05T15:46:51.106Z,16.38
2023-10-05T15:49:19.700Z,16.36
2023-10-05T15:51:47.611Z,16.34
2023-10-05T15:54:15.399Z,16.29
2023-10-05T15:56:43.379Z,16.27
2023-10-05T15:59:12.606Z,16.28
2023-10-05T16:01:40.625Z,16.24
2023-10-05T16:04:11.155Z,16.23
2023-10-05T16:06:39.151Z,16.17
2023-10-05T16:09:08.867Z,16.15
2023-10-05T16:11:37.070Z,16.14
2023-10-05T16:14:09.262Z,16.11
2023-10-05T16:16:38.699Z,16.08
2023-10-05T16:19:09.913Z,16.06
2023-10-05T16:21:40.575Z,15.99
2023-10-05T16:24:09.437Z,15.98
2023-10-05T16:26:37.692Z,15.93
2023-10-05T16:29:06.167Z,15.89
2023-10-05T16:31:34.515Z,15.90
2023-10-05T16:34:04.260Z,15.84
2023-10-05T16:36:32.122Z,15.78
2023-10-05T16:38:59.956Z,15.78
2023-10-05T16:41:28.860Z,15.79
2023-10-05T16:43:56.797Z,15.78
2023-10-05T16:46:24.892Z,15.71
2023-10-05T16:48:52.915Z,15.71
2023-10-05T16:51:22.432Z,15.65
2023-10-05T16:53:50.751Z,15.63
2023-10-05T16:56:18.621Z,15.61
2023-10-05T16:58:46.649Z,15.63
2023-10-05T17:01:14.769Z,15.60
2023-10-05T17:03:42.684Z,15.55
2023-10-05T17:06:10.598Z,15.52
2023-10-05T17:08:39.751Z,15.52
2023-10-05T17:11:07.544Z,15.46
2023-10-05T17:13:35.734Z,15.39
2023-10-05T17:16:03.781Z,15.37
2023-10-05T17:18:31.661Z,15.34
2023-10-05T17:20:59.356Z,15.34
2023-10-05T17:23:27.096Z,15.30
2023-10-05T17:25:56.550Z,15.32
2023-10-05T17:28:27.568Z,15.25
2023-10-05T17:30:57.011Z,15.22
2023-10-05T17:33:24.883Z,15.16
2023-10-05T17:35:52.702Z,15.19
2023-10-05T17:38:20.807Z,15.13
2023-10-05T17:40:57.283Z,15.16
2023-10-05T17:43:25.313Z,15.15
2023-10-05T17:45:54.575Z,15.13
2023-10-05T17:48:22.790Z,15.12
2023-10-05T17:50:55.386Z,15.07
2023-10-05T17:53:24.274Z,15.10
2023-10-05T17:55:52.684Z,15.07
2023-10-05T17:58:23.929Z,15.05
2023-10-05T18:00:52.038Z,15.03
2023-10-05T18:03:21.968Z,14.97
2023-10-05T18:05:54.158Z,14.98
2023-10-05T18:08:22.675Z,14.94
2023-10-05T18:10:50.562Z,14.93
2023-10-05T18:13:18.916Z,14.90
2023-10-05T18:15:52.481Z,14.88
2023-10-05T18:18:20.461Z,14.86
2023-10-05T18:20:48.457Z,14.84
2023-10-05T18:23:16.912Z,14.80
2023-10-05T18:25:45.323Z,14.84
2023-10-05T18:28:13.128Z,14.79
2023-10-05T18:30:41.421Z,14.77
2023-10-05T18:33:10.705Z,14.77
2023-10-05T18:35:39.260Z,14.78
2023-10-05T18:38:07.524Z,14.80
2023-10-05T18:40:35.832Z,14.85
2023-10-05T18:43:05.218Z,14.85
2023-10-05T18:45:34.817Z,14.88
2023-10-05T18:48:03.299Z,14.93
2023-10-05T18:50:33.000Z,14.94
2023-10-05T18:53:01.244Z,14.84
2023-10-05T18:55:29.225Z,14.89
2023-10-05T18:57:57.141Z,14.95
2023-10-05T19:00:24.960Z,14.97
2023-10-05T19:02:53.346Z,15.02
2023-10-05T19:05:21.800Z,15.00
2023-10-05T19:07:51.147Z,15.03
2023-10-05T19:10:19.561Z,15.04
2023-10-05T19:12:47.460Z,15.06
2023-10-05T19:15:15.484Z,14.96
2023-10-05T19:17:43.447Z,15.01
2023-10-05T19:20:11.878Z,15.01
2023-10-05T19:22:39.967Z,14.98
2023-10-05T19:25:09.467Z,15.00
2023-10-05T19:27:37.412Z,14.97
2023-10-05T19:30:06.891Z,14.98
2023-10-05T19:32:35.741Z,15.00
2023-10-05T19:35:04.787Z,15.02
2023-10-05T19:37:32.912Z,15.02
2023-10-05T19:40:00.961Z,15.02
2023-10-05T19:42:30.171Z,15.01
2023-10-05T19:44:57.986Z,14.99
2023-10-05T19:47:26.012Z,14.97
2023-10-05T19:49:55.924Z,14.99
2023-10-05T19:52:23.902Z,15.02
2023-10-05T19:54:52.319Z,14.99
2023-10-05T19:57:20.308Z,14.98
2023-10-05T19:59:51.800Z,15.01
2023-10-05T20:02:20.118Z,15.00
2023-10-05T20:04:50.396Z,14.99
2023-10-05T20:07:20.061Z,14.97
2023-10-05T20:09:47.899Z,15.01
2023-10-05T20:12:16.598Z,14.97
2023-10-05T20:14:44.674Z,14.96
2023-10-05T20:17:15.201Z,15.00
2023-10-05T20:19:43.275Z,14.94
2023-10-05T20:22:11.146Z,14.99
2023-10-05T20:24:39.302Z,15.00
2023-10-05T20:27:09.447Z,14.98
2023-10-05T20:29:37.435Z,14.94
2023-10-05T20:32:05.944Z,14.97
2023-10-05T20:34:35.324Z,14.98
2023-10-05T20:37:03.928Z,14.93
2023-10-05T20:39:31.769Z,14.97
2023-10-05T20:41:59.523Z,14.93
2023-10-05T20:44:28.596Z,14.94
2023-10-05T20:47:00.825Z,14.91
2023-10-05T20:49:34.818Z,14.93
2023-10-05T20:52:04.360Z,14.92
2023-10-05T20:54:32.264Z,14.92
2023-10-05T20:57:00.113Z,14.97
2023-10-05T20:59:32.024Z,14.99
2023-10-05T21:02:00.224Z,14.91
2023-10-05T21:04:28.546Z,14.96
2023-10-05T21:06:56.638Z,14.96
2023-10-05T21:09:26.606Z,14.89
2023-10-05T21:11:54.952Z,14.94
2023-10-05T21:14:23.884Z,14.91
2023-10-05T21:16:52.580Z,14.90
2023-10-05T21:19:20.556Z,14.81
2023-10-05T21:21:49.057Z,14.82
2023-10-05T21:24:16.908Z,14.85
2023-10-05T21:26:46.107Z,14.75
2023-10-05T21:29:13.981Z,14.78
2023-10-05T21:31:41.809Z,14.76
2023-10-05T21:34:09.890Z,14.76
2023-10-05T21:36:38.084Z,14.74
2023-10-05T21:39:06.344Z,14.70
2023-10-05T21:41:34.143Z,14.67
2023-10-05T21:44:03.507Z,14.70
2023-10-05T21:46:31.369Z,14.75
2023-10-05T21:48:59.446Z,14.78
2023-10-05T21:51:27.242Z,14.77
2023-10-05T21:53:55.084Z,14.78
2023-10-05T21:56:23.210Z,14.78
2023-10-05T21:58:51.129Z,14.60
2023-10-05T22:01:24.241Z,14.66
2023-10-05T22:03:54.243Z,14.63
2023-10-05T22:06:22.249Z,14.62
2023-10-05T22:08:50.064Z,14.64
2023-10-05T22:11:17.893Z,14.57
2023-10-05T22:13:45.806Z,14.58
2023-10-05T22:16:13.690Z,14.57
2023-10-05T22:18:42.918Z,14.62
2023-10-05T22:21:10.658Z,14.53
2023-10-05T22:23:38.496Z,14.57
2023-10-05T22:26:08.640Z,14.47
2023-10-05T22:28:36.528Z,14.50
2023-10-05T22:31:04.581Z,14.50
2023-10-05T22:33:32.402Z,14.51
2023-10-05T22:36:04.768Z,14.49
2023-10-05T22:38:43.184Z,14.50
2023-10-05T22:41:11.929Z,14.45
2023-10-05T22:43:39.798Z,14.40
2023-10-05T22:46:13.162Z,14.41
2023-10-05T22:48:41.012Z,14.40
2023-10-05T22:51:16.079Z,14.30
2023-10-05T22:53:43.939Z,14.31
2023-10-05T22:56:11.699Z,14.37
2023-10-05T22:58:39.778Z,14.38
2023-10-05T23:01:07.625Z,14.34
2023-10-05T23:03:36.585Z,14.32
2023-10-05T23:06:04.582Z,14.30
2023-10-05T23:08:33.754Z,14.33
2023-10-05T23:11:01.879Z,14.34
2023-10-05T23:13:29.939Z,14.40
2023-10-05T23:15:58.426Z,14.36
2023-10-05T23:18:27.102Z,14.39
2023-10-05T23:20:57.565Z,14.31
2023-10-05T23:23:26.410Z,14.33
2023-10-05T23:25:55.539Z,14.40
2023-10-05T23:28:23.281Z,14.34
2023-10-05T23:30:51.937Z,14.28
2023-10-05T23:33:26.792Z,14.31
2023-10-05T23:36:00.820Z,14.14
2023-10-05T23:38:34.719Z,14.23
2023-10-05T23:41:10.161Z,14.26
2023-10-05T23:43:38.238Z,14.23
2023-10-05T23:46:06.630Z,14.24
2023-10-05T23:48:34.537Z,14.20
2023-10-05T23:51:02.480Z,14.13
2023-10-05T23:53:30.273Z,14.16
2023-10-05T23:55:59.425Z,14.17
2023-10-05T23:58:28.962Z,14.17
